createdAt,value
2023-10-25T00:00:34.992Z,9.18
2023-10-25T00:03:02.659Z,10.07
2023-10-25T00:05:34.486Z,9.30
2023-10-25T00:08:02.088Z,9.18
2023-10-25T00:10:31.099Z,10.25
2023-10-25T00:13:00.309Z,9.32
2023-10-25T00:15:28.284Z,11.60
2023-10-25T00:17:55.937Z,11.75
2023-10-25T00:20:23.661Z,12.10
2023-10-25T00:22:52.545Z,12.48
2023-10-25T00:25:20.192Z,12.35
2023-10-25T00:27:47.796Z,12.10
2023-10-25T00:30:15.902Z,13.48
2023-10-25T00:32:44.020Z,13.10
2023-10-25T00:35:11.648Z,12.85
2023-10-25T00:37:39.277Z,13.10
2023-10-25T00:40:09.938Z,13.27
2023-10-25T00:42:37.581Z,13.05
2023-10-25T00:45:05.641Z,12.57
2023-10-25T00:47:33.302Z,12.05
2023-10-25T00:50:01.050Z,12.35
2023-10-25T00:52:30.501Z,12.77
2023-10-25T00:54:59.042Z,11.40
2023-10-25T00:57:27.980Z,11.40
2023-10-25T00:59:55.829Z,11.90
2023-10-25T01:02:23.503Z,10.70
2023-10-25T01:04:51.318Z,13.73
2023-10-25T01:07:18.948Z,12.63
2023-10-25T01:09:46.836Z,11.68
2023-10-25T01:12:14.412Z,11.30
2023-10-25T01:14:43.337Z,11.73
2023-10-25T01:17:10.892Z,12.17
2023-10-25T01:19:38.523Z,12.20
2023-10-25T01:22:06.989Z,12.43
2023-10-25T01:24:35.957Z,12.20
2023-10-25T01:27:03.635Z,13.77
2023-10-25T01:29:31.167Z,13.77
2023-10-25T01:31:58.819Z,14.02
2023-10-25T01:34:26.636Z,15.20
2023-10-25T01:36:54.320Z,13.52
2023-10-25T01:39:21.991Z,14.95
2023-10-25T01:41:50.967Z,15.33
2023-10-25T01:44:18.582Z,14.02
2023-10-25T01:46:46.265Z,13.18
2023-10-25T01:49:13.974Z,13.60
2023-10-25T01:51:41.606Z,12.75
2023-10-25T01:54:09.218Z,13.63
2023-10-25T01:56:37.804Z,12.70
2023-10-25T01:59:06.756Z,12.63
2023-10-25T02:01:34.425Z,12.60
2023-10-25T02:04:02.182Z,12.77
2023-10-25T02:06:29.940Z,12.03
2023-10-25T02:08:57.732Z,11.38
2023-10-25T02:11:25.387Z,11.50
2023-10-25T02:13:52.940Z,11.10
2023-10-25T02:16:24.467Z,11.23
2023-10-25T02:18:52.205Z,11.87
2023-10-25T02:21:19.830Z,11.68
2023-10-25T02:23:47.459Z,11.60
2023-10-25T02:26:15.041Z,11.57
2023-10-25T02:28:42.678Z,11.13
2023-10-25T02:31:10.353Z,10.97
2023-10-25T02:33:40.372Z,11.00
2023-10-25T02:36:08.360Z,10.85
2023-10-25T02:38:35.958Z,10.75
2023-10-25T02:41:03.924Z,10.70
2023-10-25T02:43:31.774Z,10.70
2023-10-25T02:46:02.610Z,11.90
2023-10-25T02:48:30.883Z,11.23
2023-10-25T02:51:01.992Z,10.68
2023-10-25T02:53:29.600Z,10.70
2023-10-25T02:56:00.405Z,11.00
2023-10-25T02:58:28.163Z,9.95
2023-10-25T03:00:57.465Z,11.00
2023-10-25T03:03:25.328Z,10.45
2023-10-25T03:05:52.973Z,10.48
2023-10-25T03:08:22.142Z,9.77
2023-10-25T03:10:49.840Z,10.95
2023-10-25T03:13:17.704Z,9.82
2023-10-25T03:15:45.472Z,9.90
2023-10-25T03:18:13.140Z,9.65
2023-10-25T03:20:40.712Z,10.03
2023-10-25T03:23:08.354Z,9.40
2023-10-25T03:25:37.333Z,10.23
2023-10-25T03:28:05.203Z,9.60
2023-10-25T03:30:32.983Z,8.98
2023-10-25T03:33:00.614Z,9.40
2023-10-25T03:35:28.457Z,9.82
2023-10-25T03:37:56.001Z,9.75
2023-10-25T03:40:23.618Z,11.30
2023-10-25T03:42:52.559Z,12.40
2023-10-25T03:45:20.827Z,12.43
2023-10-25T03:47:48.466Z,13.32
2023-10-25T03:50:17.885Z,13.23
2023-10-25T03:52:45.494Z,12.75
2023-10-25T03:55:13.237Z,13.57
2023-10-25T03:57:40.964Z,12.80
2023-10-25T04:00:12.167Z,12.27
2023-10-25T04:02:39.829Z,13.45
2023-10-25T04:05:08.141Z,11.68
2023-10-25T04:07:35.771Z,11.23
2023-10-25T04:10:03.436Z,12.57
2023-10-25T04:12:31.106Z,12.35
2023-10-25T04:14:58.853Z,12.05
2023-10-25T04:17:27.748Z,11.85
2023-10-25T04:19:55.605Z,11.45
2023-10-25T04:22:23.241Z,13.07
2023-10-25T04:24:50.797Z,12.27
2023-10-25T04:27:18.401Z,11.93
2023-10-25T04:29:45.942Z,12.23
2023-10-25T04:32:13.529Z,12.43
2023-10-25T04:34:42.465Z,12.30
2023-10-25T04:37:10.177Z,11.95
2023-10-25T04:39:37.765Z,11.63
2023-10-25T04:42:05.816Z,12.05
2023-10-25T04:44:33.425Z,11.48
2023-10-25T04:47:01.700Z,12.07
2023-10-25T04:49:30.158Z,10.93
2023-10-25T04:51:59.109Z,12.55
2023-10-25T04:54:26.713Z,11.52
2023-10-25T04:56:54.740Z,10.95
2023-10-25T04:59:22.473Z,10.60
2023-10-25T05:01:50.140Z,11.63
2023-10-25T05:04:17.805Z,12.00
2023-10-25T05:06:45.968Z,11.30
2023-10-25T05:09:15.529Z,10.25
2023-10-25T05:11:52.283Z,10.17
2023-10-25T05:14:20.354Z,10.45
2023-10-25T05:16:48.633Z,10.32
2023-10-25T05:19:16.986Z,10.45
2023-10-25T05:21:47.061Z,10.68
2023-10-25T05:24:17.210Z,9.50
2023-10-25T05:26:45.650Z,9.82
2023-10-25T05:29:13.643Z,9.75
2023-10-25T05:31:44.863Z,9.75
2023-10-25T05:34:13.012Z,9.00
2023-10-25T05:36:41.148Z,10.10
2023-10-25T05:39:09.636Z,8.98
2023-10-25T05:41:42.327Z,11.52
2023-10-25T05:44:15.398Z,12.98
2023-10-25T05:46:43.764Z,11.20
2023-10-25T05:49:12.148Z,10.73
2023-10-25T05:51:40.601Z,10.27
2023-10-25T05:54:09.304Z,10.20
2023-10-25T05:56:39.052Z,9.52
2023-10-25T05:59:07.324Z,9.90
2023-10-25T06:01:47.383Z,11.03
2023-10-25T06:04:16.268Z,10.93
2023-10-25T06:06:45.850Z,11.82
2023-10-25T06:09:14.475Z,11.73
2023-10-25T06:11:44.002Z,12.15
2023-10-25T06:14:12.354Z,11.53
2023-10-25T06:16:40.216Z,13.25
2023-10-25T06:19:08.412Z,12.60
2023-10-25T06:21:35.972Z,11.57
2023-10-25T06:24:03.630Z,11.27
2023-10-25T06:26:31.258Z,12.43
2023-10-25T06:29:00.598Z,12.68
2023-10-25T06:31:28.337Z,11.15
2023-10-25T06:33:56.118Z,11.43
2023-10-25T06:36:24.117Z,11.15
2023-10-25T06:38:52.281Z,12.70
2023-10-25T06:41:23.349Z,12.35
2023-10-25T06:43:51.421Z,11.85
2023-10-25T06:46:23.068Z,12.02
2023-10-25T06:48:51.455Z,10.90
2023-10-25T06:51:20.901Z,12.73
2023-10-25T06:53:49.046Z,11.27
2023-10-25T06:56:17.147Z,11.45
2023-10-25T06:58:45.257Z,11.95
2023-10-25T07:01:14.255Z,12.00
2023-10-25T07:03:47.323Z,11.97
2023-10-25T07:06:17.724Z,13.05
2023-10-25T07:08:45.831Z,11.95
2023-10-25T07:11:13.572Z,13.52
2023-10-25T07:13:41.144Z,12.15
2023-10-25T07:16:09.260Z,13.40
2023-10-25T07:18:39.486Z,12.68
2023-10-25T07:21:09.704Z,12.60
2023-10-25T07:23:37.337Z,13.02
2023-10-25T07:26:04.910Z,13.90
2023-10-25T07:28:32.582Z,12.60
2023-10-25T07:31:00.166Z,13.63
2023-10-25T07:33:28.668Z,13.52
2023-10-25T07:35:56.314Z,13.38
2023-10-25T07:38:25.280Z,12.85
2023-10-25T07:40:52.879Z,13.13
2023-10-25T07:43:21.814Z,13.20
2023-10-25T07:45:49.607Z,13.50
2023-10-25T07:48:18.096Z,12.88
2023-10-25T07:50:45.783Z,12.27
2023-10-25T07:53:13.335Z,12.37
2023-10-25T08:00:48.249Z,12.88
2023-10-25T08:03:18.406Z,13.55
2023-10-25T08:05:46.256Z,12.53
2023-10-25T08:08:14.065Z,13.57
2023-10-25T08:10:41.644Z,13.85
2023-10-25T08:13:10.549Z,12.45
2023-10-25T08:15:38.697Z,12.77
2023-10-25T08:18:07.052Z,12.80
2023-10-25T08:20:37.103Z,12.85
2023-10-25T08:23:04.704Z,12.27
2023-10-25T08:25:35.601Z,15.18
2023-10-25T08:28:03.345Z,12.80
2023-10-25T08:30:32.242Z,11.80
2023-10-25T08:32:59.965Z,11.43
2023-10-25T08:35:27.702Z,12.88
2023-10-25T08:37:55.449Z,13.73
2023-10-25T08:40:23.069Z,13.32
2023-10-25T08:42:52.229Z,11.60
2023-10-25T08:45:20.675Z,11.10
2023-10-25T08:47:51.750Z,12.07
2023-10-25T08:50:21.624Z,11.30
2023-10-25T08:52:50.481Z,11.95
2023-10-25T08:55:19.973Z,10.53
2023-10-25T08:57:55.080Z,11.93
2023-10-25T09:00:29.322Z,15.95
2023-10-25T09:03:05.265Z,12.50
2023-10-25T09:05:41.005Z,17.60
2023-10-25T09:08:16.407Z,11.70
2023-10-25T09:10:44.044Z,11.10
2023-10-25T09:13:15.664Z,10.57
2023-10-25T09:15:43.259Z,9.68
2023-10-25T09:18:12.351Z,9.88
2023-10-25T09:20:40.137Z,9.63
2023-10-25T09:23:11.635Z,9.25
2023-10-25T09:25:39.646Z,9.20
2023-10-25T09:28:16.609Z,9.38
2023-10-25T09:30:44.891Z,8.63
2023-10-25T09:33:13.923Z,7.50
2023-10-25T09:35:43.654Z,8.57
2023-10-25T09:38:11.290Z,8.23
2023-10-25T09:40:42.699Z,8.05
2023-10-25T09:43:16.353Z,7.65
2023-10-25T09:45:48.129Z,7.80
2023-10-25T09:48:19.993Z,7.30
2023-10-25T09:51:04.942Z,6.30
2023-10-25T09:53:39.530Z,7.13
2023-10-25T09:56:10.452Z,8.05
2023-10-25T09:58:38.499Z,6.27
2023-10-25T10:01:06.907Z,6.90
2023-10-25T10:03:47.500Z,6.47
2023-10-25T10:06:28.837Z,6.35
2023-10-25T10:09:06.155Z,6.88
2023-10-25T10:11:38.307Z,7.97
2023-10-25T10:14:31.327Z,6.47
2023-10-25T10:17:01.035Z,6.60
2023-10-25T10:19:32.133Z,5.90
2023-10-25T10:22:05.508Z,6.03
2023-10-25T10:24:57.777Z,5.80
2023-10-25T10:27:26.990Z,5.43
2023-10-25T10:29:55.554Z,5.30
2023-10-25T10:32:23.381Z,5.63
2023-10-25T10:34:54.439Z,5.93
2023-10-25T10:37:25.901Z,5.03
2023-10-25T10:40:12.829Z,5.20
2023-10-25T10:42:41.853Z,5.00
2023-10-25T10:45:14.894Z,5.45
2023-10-25T10:47:44.591Z,4.78
2023-10-25T10:50:14.965Z,4.87
2023-10-25T10:52:44.181Z,5.45
2023-10-25T10:55:15.417Z,4.85
2023-10-25T10:57:52.666Z,5.00
2023-10-25T11:00:31.079Z,4.60
2023-10-25T11:03:04.118Z,5.60
2023-10-25T11:05:34.697Z,4.80
2023-10-25T11:08:02.298Z,4.80
2023-10-25T11:10:29.955Z,4.50
2023-10-25T11:12:59.738Z,4.80
2023-10-25T11:15:30.990Z,4.20
2023-10-25T11:17:59.209Z,4.70
2023-10-25T11:20:26.831Z,4.10
2023-10-25T11:22:55.827Z,4.47
2023-10-25T11:25:23.584Z,4.15
2023-10-25T11:27:51.256Z,4.00
2023-10-25T11:30:20.060Z,3.60
2023-10-25T11:32:49.647Z,3.40
2023-10-25T11:35:24.813Z,3.60
2023-10-25T11:37:53.851Z,3.67
2023-10-25T11:40:35.956Z,3.50
2023-10-25T11:43:06.835Z,3.50
2023-10-25T11:45:34.685Z,3.28
2023-10-25T11:48:02.377Z,3.17
2023-10-25T11:50:30.948Z,2.78
2023-10-25T11:52:59.981Z,3.00
2023-10-25T11:55:29.860Z,2.83
2023-10-25T11:57:58.174Z,3.10
2023-10-25T12:00:26.688Z,2.58
2023-10-25T12:02:54.410Z,2.70
2023-10-25T12:05:22.091Z,2.60
2023-10-25T12:07:50.367Z,2.55
2023-10-25T12:10:18.235Z,2.20
2023-10-25T12:12:47.168Z,2.45
2023-10-25T12:15:15.097Z,2.10
2023-10-25T12:17:42.742Z,2.00
2023-10-25T12:22:42.107Z,1.90
2023-10-25T12:25:10.031Z,2.05
2023-10-25T12:27:37.639Z,1.95
2023-10-25T12:30:08.320Z,1.90
2023-10-25T12:32:35.991Z,2.08
2023-10-25T12:35:03.634Z,1.92
2023-10-25T12:37:31.525Z,2.00
2023-10-25T12:39:59.078Z,2.20
2023-10-25T12:42:26.687Z,2.10
2023-10-25T12:44:55.067Z,2.15
2023-10-25T12:47:25.056Z,2.35
2023-10-25T12:49:53.379Z,2.75
2023-10-25T12:52:21.037Z,2.50
2023-10-25T12:54:48.767Z,2.30
2023-10-25T12:57:16.427Z,2.30
2023-10-25T12:59:44.055Z,2.00
2023-10-25T13:02:11.695Z,2.25
2023-10-25T13:04:41.077Z,2.42
2023-10-25T13:07:08.804Z,2.80
2023-10-25T13:09:36.656Z,2.60
2023-10-25T13:12:09.288Z,2.75
2023-10-25T13:14:37.685Z,3.08
2023-10-25T13:17:16.910Z,2.97
2023-10-25T13:19:49.254Z,3.20
2023-10-25T13:22:16.917Z,2.58
2023-10-25T13:24:44.748Z,2.65
2023-10-25T13:27:12.541Z,2.95
2023-10-25T13:29:40.521Z,2.50
2023-10-25T13:32:08.955Z,2.50
2023-10-25T13:34:36.842Z,2.83
2023-10-25T13:37:05.851Z,3.00
2023-10-25T13:39:33.401Z,3.22
2023-10-25T13:42:01.109Z,2.80
2023-10-25T13:44:29.284Z,2.90
2023-10-25T13:46:57.145Z,3.08
2023-10-25T13:49:24.687Z,3.15
2023-10-25T13:51:52.497Z,2.67
2023-10-25T13:54:21.584Z,3.47
2023-10-25T13:56:49.302Z,2.63
2023-10-25T13:59:17.086Z,2.92
2023-10-25T14:01:44.750Z,2.92
2023-10-25T14:04:15.988Z,2.60
2023-10-25T14:06:44.621Z,2.75
2023-10-25T14:09:12.296Z,3.00
2023-10-25T14:11:41.282Z,3.38
2023-10-25T14:14:09.145Z,3.17
2023-10-25T14:16:36.757Z,3.58
2023-10-25T14:19:04.392Z,3.55
2023-10-25T14:21:31.950Z,3.57
2023-10-25T14:23:59.677Z,3.50
2023-10-25T14:26:27.386Z,3.17
2023-10-25T14:28:56.319Z,3.22
2023-10-25T14:31:23.965Z,3.00
2023-10-25T14:33:52.768Z,3.43
2023-10-25T14:36:21.459Z,3.47
2023-10-25T14:38:50.808Z,3.20
2023-10-25T14:41:18.393Z,3.28
2023-10-25T14:43:46.001Z,3.42
2023-10-25T14:46:18.373Z,3.50
2023-10-25T14:48:46.124Z,3.58
2023-10-25T14:51:15.097Z,3.47
2023-10-25T14:53:42.883Z,3.00
2023-10-25T14:56:10.479Z,2.92
2023-10-25T14:58:39.327Z,3.37
2023-10-25T15:01:08.986Z,3.60
2023-10-25T15:03:38.178Z,3.70
2023-10-25T15:06:05.995Z,3.70
2023-10-25T15:08:33.639Z,3.70
2023-10-25T15:11:04.350Z,3.33
2023-10-25T15:13:33.324Z,3.47
2023-10-25T15:16:01.141Z,4.45
2023-10-25T15:18:28.996Z,4.68
2023-10-25T15:20:58.140Z,4.60
2023-10-25T15:23:25.874Z,5.70
2023-10-25T15:25:53.458Z,5.57
2023-10-25T15:28:21.025Z,5.72
2023-10-25T15:30:49.145Z,5.35
2023-10-25T15:33:16.877Z,5.40
2023-10-25T15:35:44.607Z,5.60
2023-10-25T15:38:13.487Z,5.40
2023-10-25T15:40:41.169Z,4.82
2023-10-25T15:43:08.734Z,5.80
2023-10-25T15:45:36.414Z,5.40
2023-10-25T15:48:04.122Z,5.47
2023-10-25T15:50:32.227Z,5.53
2023-10-25T15:53:17.028Z,5.20
2023-10-25T15:55:50.704Z,5.20
2023-10-25T15:58:18.265Z,5.50
2023-10-25T16:00:45.868Z,5.67
2023-10-25T16:03:14.627Z,6.18
2023-10-25T16:05:42.369Z,5.90
2023-10-25T16:08:09.986Z,5.63
2023-10-25T16:10:37.611Z,6.03
2023-10-25T16:13:06.572Z,6.40
2023-10-25T16:15:37.107Z,6.20
2023-10-25T16:18:05.096Z,6.75
2023-10-25T16:20:33.473Z,6.78
2023-10-25T16:23:01.236Z,6.68
2023-10-25T16:25:28.769Z,6.93
2023-10-25T16:27:56.352Z,7.38
2023-10-25T16:30:25.387Z,7.22
2023-10-25T16:32:53.011Z,7.78
2023-10-25T16:35:20.655Z,7.28
2023-10-25T16:37:52.458Z,8.10
2023-10-25T16:40:20.252Z,8.35
2023-10-25T16:42:48.358Z,9.60
2023-10-25T16:45:16.296Z,9.13
2023-10-25T16:47:45.369Z,10.10
2023-10-25T16:50:12.993Z,10.47
2023-10-25T16:52:40.894Z,11.15
2023-10-25T16:55:08.975Z,11.75
2023-10-25T16:57:36.547Z,10.68
2023-10-25T17:00:09.036Z,11.95
2023-10-25T17:02:36.843Z,12.07
2023-10-25T17:05:06.411Z,12.63
2023-10-25T17:07:34.162Z,14.30
2023-10-25T17:10:02.511Z,13.07
2023-10-25T17:12:30.248Z,12.93
2023-10-25T17:14:58.293Z,13.07
2023-10-25T17:17:26.207Z,14.68
2023-10-25T17:19:53.869Z,14.73
2023-10-25T17:22:23.037Z,14.30
2023-10-25T17:24:50.890Z,13.80
2023-10-25T17:27:18.657Z,15.20
2023-10-25T17:29:46.453Z,15.20
2023-10-25T17:32:14.563Z,14.20
2023-10-25T17:34:42.673Z,14.57
2023-10-25T17:37:10.412Z,14.68
2023-10-25T17:39:39.501Z,15.47
2023-10-25T17:42:07.614Z,15.05
2023-10-25T17:44:36.106Z,15.52
2023-10-25T17:47:04.118Z,15.25
2023-10-25T17:49:31.742Z,15.57
2023-10-25T17:52:00.922Z,15.07
2023-10-25T17:54:28.504Z,13.30
2023-10-25T17:56:57.461Z,15.20
2023-10-25T17:59:26.600Z,15.40
2023-10-25T18:01:54.150Z,15.25
2023-10-25T18:04:21.827Z,15.03
2023-10-25T18:07:06.560Z,15.23
2023-10-25T18:09:36.332Z,14.80
2023-10-25T18:12:05.900Z,15.13
2023-10-25T18:14:33.653Z,15.00
2023-10-25T18:17:01.230Z,13.83
2023-10-25T18:19:28.831Z,15.10
2023-10-25T18:22:01.823Z,14.65
2023-10-25T18:24:29.945Z,15.50
2023-10-25T18:26:57.579Z,16.38
2023-10-25T18:29:26.503Z,16.40
2023-10-25T18:32:03.234Z,16.98
2023-10-25T18:34:41.879Z,16.60
2023-10-25T18:37:09.741Z,16.90
2023-10-25T18:39:37.368Z,17.45
2023-10-25T18:42:06.711Z,16.80
2023-10-25T18:44:39.230Z,15.63
2023-10-25T18:47:07.446Z,16.90
2023-10-25T18:49:35.340Z,16.88
2023-10-25T18:52:03.630Z,17.05
2023-10-25T18:54:32.369Z,18.07
2023-10-25T18:57:00.014Z,17.45
2023-10-25T18:59:27.653Z,16.67
2023-10-25T19:01:56.576Z,17.63
2023-10-25T19:04:24.371Z,17.13
2023-10-25T19:06:52.413Z,17.37
2023-10-25T19:09:20.506Z,18.08
2023-10-25T19:11:51.483Z,17.58
2023-10-25T19:14:19.583Z,17.95
2023-10-25T19:16:47.390Z,17.17
2023-10-25T19:19:17.794Z,16.53
2023-10-25T19:21:45.781Z,17.17
2023-10-25T19:24:13.382Z,17.67
2023-10-25T19:26:48.254Z,15.38
2023-10-25T19:29:18.019Z,16.25
2023-10-25T19:31:45.809Z,16.40
2023-10-25T19:34:13.737Z,16.20
2023-10-25T19:36:44.953Z,16.48
2023-10-25T19:39:12.885Z,16.52
2023-10-25T19:41:40.455Z,16.80
2023-10-25T19:44:09.258Z,16.60
2023-10-25T19:46:37.232Z,17.00
2023-10-25T19:49:06.689Z,17.63
2023-10-25T19:51:35.323Z,16.73
2023-10-25T19:54:04.867Z,15.90
2023-10-25T19:56:33.636Z,16.97
2023-10-25T19:59:01.206Z,17.10
2023-10-25T20:01:28.837Z,17.35
2023-10-25T20:03:56.555Z,17.98
2023-10-25T20:06:24.268Z,17.13
2023-10-25T20:08:52.215Z,17.27
2023-10-25T20:11:21.221Z,18.67
2023-10-25T20:13:48.862Z,17.35
2023-10-25T20:16:16.655Z,16.60
2023-10-25T20:18:45.163Z,16.73
2023-10-25T20:21:12.917Z,17.93
2023-10-25T20:23:40.693Z,18.13
2023-10-25T20:26:21.654Z,17.10
2023-10-25T20:28:59.482Z,17.60
2023-10-25T20:31:27.084Z,18.13
2023-10-25T20:33:54.719Z,17.93
2023-10-25T20:36:22.898Z,17.50
2023-10-25T20:38:51.365Z,17.65
2023-10-25T20:41:19.247Z,18.92
2023-10-25T20:43:46.857Z,17.02
2023-10-25T20:46:15.846Z,16.77
2023-10-25T20:48:43.572Z,18.10
2023-10-25T20:51:11.308Z,17.83
2023-10-25T20:53:38.921Z,17.05
2023-10-25T20:56:07.069Z,17.45
2023-10-25T20:58:34.635Z,17.40
2023-10-25T21:01:06.210Z,17.42
2023-10-25T21:03:35.446Z,17.67
2023-10-25T21:06:03.130Z,17.83
2023-10-25T21:08:30.811Z,17.48
2023-10-25T21:11:00.040Z,16.57
2023-10-25T21:13:27.613Z,16.25
2023-10-25T21:15:55.281Z,16.67
2023-10-25T21:18:24.761Z,16.20
2023-10-25T21:20:53.772Z,16.63
2023-10-25T21:23:21.368Z,16.20
2023-10-25T21:25:48.985Z,16.58
2023-10-25T21:28:16.802Z,15.75
2023-10-25T21:30:44.380Z,15.68
2023-10-25T21:33:12.181Z,15.57
2023-10-25T21:35:39.866Z,15.10
2023-10-25T21:38:08.767Z,16.08
2023-10-25T21:40:38.211Z,15.18
2023-10-25T21:43:06.782Z,15.48
2023-10-25T21:45:34.750Z,14.77
2023-10-25T21:48:02.573Z,14.20
2023-10-25T21:50:30.345Z,14.98
2023-10-25T21:52:57.972Z,13.95
2023-10-25T21:55:26.949Z,14.80
2023-10-25T21:59:47.150Z,13.80
2023-10-25T22:00:47.392Z,13.17
2023-10-25T22:03:15.377Z,14.32
2023-10-25T22:05:43.224Z,13.80
2023-10-25T22:08:10.897Z,14.35
2023-10-25T22:10:39.972Z,13.52
2023-10-25T22:13:07.628Z,13.73
2023-10-25T22:15:35.296Z,13.77
2023-10-25T22:18:03.253Z,12.95
2023-10-25T22:20:30.958Z,13.98
2023-10-25T22:22:58.660Z,13.43
2023-10-25T22:25:26.405Z,13.87
2023-10-25T22:27:55.537Z,13.88
2023-10-25T22:30:23.389Z,13.95
2023-10-25T22:32:51.175Z,14.13
2023-10-25T22:35:19.820Z,13.55
2023-10-25T22:37:47.500Z,12.97
2023-10-25T22:40:15.148Z,13.90
2023-10-25T22:42:42.772Z,12.75
2023-10-25T22:45:11.989Z,13.75
2023-10-25T22:47:41.149Z,13.57
2023-10-25T22:50:09.435Z,12.53
2023-10-25T22:52:37.078Z,13.95
2023-10-25T22:55:05.129Z,12.95
2023-10-25T22:57:32.746Z,13.18
2023-10-25T23:00:00.422Z,14.13
2023-10-25T23:02:29.377Z,12.37
2023-10-25T23:04:56.988Z,13.55
2023-10-25T23:07:24.581Z,12.70
2023-10-25T23:09:52.193Z,11.98
2023-10-25T23:12:21.409Z,12.63
2023-10-25T23:14:49.142Z,11.73
2023-10-25T23:17:16.853Z,12.43
2023-10-25T23:19:45.789Z,12.90
2023-10-25T23:22:13.429Z,12.30
2023-10-25T23:24:41.504Z,12.15
2023-10-25T23:27:09.106Z,11.17
2023-10-25T23:29:36.677Z,10.35
2023-10-25T23:32:04.363Z,11.05
2023-10-25T23:34:31.960Z,11.45
2023-10-25T23:37:01.067Z,11.85
2023-10-25T23:39:28.676Z,11.03
2023-10-25T23:41:56.270Z,11.30
2023-10-25T23:44:23.922Z,12.25
2023-10-25T23:46:51.479Z,11.52
2023-10-25T23:49:19.090Z,11.73
2023-10-25T23:51:46.769Z,10.93
2023-10-25T23:54:53.472Z,10.85
2023-10-25T23:57:04.164Z,11.05
2023-10-25T23:59:31.885Z,11.48
